Terminal Aerodrome Forecast
Issued by NWS Paducah, KY

Home | Current Version | Previous Version | Text Only | Print | Product List | Glossary On
Versions: 1 2 3 4 5 6 7 8 9 10 11 12 13 14 15 16 17 18
000
FTUS43 KPAH 242320
TAFEVV
TAF
KEVV 242320Z 2500/2524 16011G17KT P6SM SCT050 BKN100
     FM250300 18012KT P6SM BKN050
      TEMPO 2505/2509 4SM TSRA BKN030CB
     FM250900 19010KT 4SM -SHRA BR BKN025
     FM251400 20013KT P6SM SCT035 BKN100
     FM251900 19013KT P6SM SCT050 BKN150=

USA.gov is the U.S. government's official web portal to all federal, state and local government web resources and services.